sensor_id;sensor_type;location;lat;lon;timestamp;temperature;humidity
70079;DHT22;57451;52.496;13.456;2023-02-28T00:00:13;2.90;60.50
70079;DHT22;57451;52.496;13.456;2023-02-28T00:02:43;2.90;60.50
70079;DHT22;57451;52.496;13.456;2023-02-28T00:05:12;2.90;60.70
70079;DHT22;57451;52.496;13.456;2023-02-28T00:07:40;3.00;60.70
70079;DHT22;57451;52.496;13.456;2023-02-28T00:10:09;2.90;60.60
70079;DHT22;57451;52.496;13.456;2023-02-28T00:12:37;2.90;60.60
70079;DHT22;57451;52.496;13.456;2023-02-28T00:15:06;2.90;60.60
70079;DHT22;57451;52.496;13.456;2023-02-28T00:17:33;3.00;60.50
70079;DHT22;57451;52.496;13.456;2023-02-28T00:20:03;2.90;60.40
70079;DHT22;57451;52.496;13.456;2023-02-28T00:22:40;2.90;60.70
70079;DHT22;57451;52.496;13.456;2023-02-28T00:25:08;2.90;60.90
70079;DHT22;57451;52.496;13.456;2023-02-28T00:27:37;2.90;61.00
70079;DHT22;57451;52.496;13.456;2023-02-28T00:30:06;2.90;61.00
70079;DHT22;57451;52.496;13.456;2023-02-28T00:32:34;2.90;60.90
70079;DHT22;57451;52.496;13.456;2023-02-28T00:35:04;2.90;61.00
70079;DHT22;57451;52.496;13.456;2023-02-28T00:37:31;2.90;60.90
70079;DHT22;57451;52.496;13.456;2023-02-28T00:39:59;2.90;61.20
70079;DHT22;57451;52.496;13.456;2023-02-28T00:42:27;2.90;61.30
70079;DHT22;57451;52.496;13.456;2023-02-28T00:44:54;2.90;61.20
70079;DHT22;57451;52.496;13.456;2023-02-28T00:47:21;2.90;61.00
70079;DHT22;57451;52.496;13.456;2023-02-28T00:49:49;2.90;61.00
70079;DHT22;57451;52.496;13.456;2023-02-28T00:52:17;2.90;61.10
70079;DHT22;57451;52.496;13.456;2023-02-28T00:54:44;2.90;61.10
70079;DHT22;57451;52.496;13.456;2023-02-28T00:57:14;2.90;61.10
70079;DHT22;57451;52.496;13.456;2023-02-28T00:59:41;2.90;61.10
70079;DHT22;57451;52.496;13.456;2023-02-28T01:02:08;2.90;61.00
70079;DHT22;57451;52.496;13.456;2023-02-28T01:04:36;2.90;61.10
70079;DHT22;57451;52.496;13.456;2023-02-28T01:07:03;2.90;61.00
70079;DHT22;57451;52.496;13.456;2023-02-28T01:09:32;2.90;61.20
70079;DHT22;57451;52.496;13.456;2023-02-28T01:11:59;2.90;61.20
70079;DHT22;57451;52.496;13.456;2023-02-28T01:14:26;2.80;61.20
70079;DHT22;57451;52.496;13.456;2023-02-28T01:16:54;2.80;61.20
70079;DHT22;57451;52.496;13.456;2023-02-28T01:19:21;2.80;61.30
70079;DHT22;57451;52.496;13.456;2023-02-28T01:21:48;2.80;61.40
70079;DHT22;57451;52.496;13.456;2023-02-28T01:24:16;2.90;61.30
70079;DHT22;57451;52.496;13.456;2023-02-28T01:26:45;2.90;61.20
70079;DHT22;57451;52.496;13.456;2023-02-28T01:29:13;2.80;61.20
70079;DHT22;57451;52.496;13.456;2023-02-28T01:31:40;2.80;61.20
70079;DHT22;57451;52.496;13.456;2023-02-28T01:34:08;2.80;61.30
70079;DHT22;57451;52.496;13.456;2023-02-28T01:36:35;2.80;61.30
70079;DHT22;57451;52.496;13.456;2023-02-28T01:39:03;2.70;61.40
70079;DHT22;57451;52.496;13.456;2023-02-28T01:41:33;2.70;61.40
70079;DHT22;57451;52.496;13.456;2023-02-28T01:44:05;2.70;61.60
70079;DHT22;57451;52.496;13.456;2023-02-28T01:46:34;2.70;61.50
70079;DHT22;57451;52.496;13.456;2023-02-28T01:49:05;2.60;61.60
70079;DHT22;57451;52.496;13.456;2023-02-28T01:51:38;2.60;61.70
70079;DHT22;57451;52.496;13.456;2023-02-28T01:54:10;2.60;61.70
70079;DHT22;57451;52.496;13.456;2023-02-28T01:56:44;2.50;61.80
70079;DHT22;57451;52.496;13.456;2023-02-28T01:59:20;2.40;62.00
70079;DHT22;57451;52.496;13.456;2023-02-28T02:01:49;2.30;62.10
70079;DHT22;57451;52.496;13.456;2023-02-28T02:04:19;2.30;62.10
70079;DHT22;57451;52.496;13.456;2023-02-28T02:06:48;2.20;62.30
70079;DHT22;57451;52.496;13.456;2023-02-28T02:09:16;2.20;62.40
70079;DHT22;57451;52.496;13.456;2023-02-28T02:11:45;2.10;62.40
70079;DHT22;57451;52.496;13.456;2023-02-28T02:14:40;2.10;62.50
70079;DHT22;57451;52.496;13.456;2023-02-28T02:17:16;2.00;62.80
70079;DHT22;57451;52.496;13.456;2023-02-28T02:20:06;2.00;63.10
70079;DHT22;57451;52.496;13.456;2023-02-28T02:23:02;2.00;63.00
70079;DHT22;57451;52.496;13.456;2023-02-28T02:25:39;2.00;63.10
70079;DHT22;57451;52.496;13.456;2023-02-28T02:31:28;1.80;63.40
70079;DHT22;57451;52.496;13.456;2023-02-28T02:34:23;1.70;63.50
70079;DHT22;57451;52.496;13.456;2023-02-28T02:37:00;1.60;63.70
70079;DHT22;57451;52.496;13.456;2023-02-28T02:39:37;1.60;64.00
70079;DHT22;57451;52.496;13.456;2023-02-28T02:42:12;1.60;63.90
70079;DHT22;57451;52.496;13.456;2023-02-28T02:44:43;1.50;63.90
70079;DHT22;57451;52.496;13.456;2023-02-28T02:47:15;1.40;64.30
70079;DHT22;57451;52.496;13.456;2023-02-28T02:49:47;1.40;64.40
70079;DHT22;57451;52.496;13.456;2023-02-28T02:52:20;1.40;64.30
70079;DHT22;57451;52.496;13.456;2023-02-28T02:54:50;1.30;64.60
70079;DHT22;57451;52.496;13.456;2023-02-28T02:57:25;1.30;64.90
70079;DHT22;57451;52.496;13.456;2023-02-28T02:59:56;1.20;65.00
70079;DHT22;57451;52.496;13.456;2023-02-28T03:02:23;1.20;65.30
70079;DHT22;57451;52.496;13.456;2023-02-28T03:04:59;1.20;65.30
70079;DHT22;57451;52.496;13.456;2023-02-28T03:07:28;1.10;65.50
70079;DHT22;57451;52.496;13.456;2023-02-28T03:09:56;1.10;65.60
70079;DHT22;57451;52.496;13.456;2023-02-28T03:12:30;1.00;65.80
70079;DHT22;57451;52.496;13.456;2023-02-28T03:15:07;1.00;66.00
70079;DHT22;57451;52.496;13.456;2023-02-28T03:17:48;1.00;66.10
70079;DHT22;57451;52.496;13.456;2023-02-28T03:20:26;1.00;66.20
70079;DHT22;57451;52.496;13.456;2023-02-28T03:23:05;0.90;66.10
70079;DHT22;57451;52.496;13.456;2023-02-28T03:25:41;0.90;66.30
70079;DHT22;57451;52.496;13.456;2023-02-28T03:28:16;0.90;66.20
70079;DHT22;57451;52.496;13.456;2023-02-28T03:30:48;0.90;66.30
70079;DHT22;57451;52.496;13.456;2023-02-28T03:33:24;0.90;66.40
70079;DHT22;57451;52.496;13.456;2023-02-28T03:35:57;0.90;66.60
70079;DHT22;57451;52.496;13.456;2023-02-28T03:38:29;0.90;66.40
70079;DHT22;57451;52.496;13.456;2023-02-28T03:41:02;0.80;66.20
70079;DHT22;57451;52.496;13.456;2023-02-28T03:43:35;0.80;66.60
70079;DHT22;57451;52.496;13.456;2023-02-28T03:46:08;0.80;66.60
70079;DHT22;57451;52.496;13.456;2023-02-28T03:48:40;0.80;66.60
70079;DHT22;57451;52.496;13.456;2023-02-28T03:51:12;0.70;66.50
70079;DHT22;57451;52.496;13.456;2023-02-28T03:53:45;0.70;66.60
70079;DHT22;57451;52.496;13.456;2023-02-28T03:56:16;0.70;66.80
70079;DHT22;57451;52.496;13.456;2023-02-28T03:58:49;0.70;66.90
70079;DHT22;57451;52.496;13.456;2023-02-28T04:01:21;0.60;67.10
70079;DHT22;57451;52.496;13.456;2023-02-28T04:03:50;0.60;67.20
70079;DHT22;57451;52.496;13.456;2023-02-28T04:06:21;0.50;67.40
70079;DHT22;57451;52.496;13.456;2023-02-28T04:08:49;0.50;67.50
70079;DHT22;57451;52.496;13.456;2023-02-28T04:11:22;0.40;67.50
70079;DHT22;57451;52.496;13.456;2023-02-28T04:13:50;0.40;67.90
70079;DHT22;57451;52.496;13.456;2023-02-28T04:16:17;0.40;68.10
70079;DHT22;57451;52.496;13.456;2023-02-28T04:19:01;0.30;68.30
70079;DHT22;57451;52.496;13.456;2023-02-28T04:21:35;0.30;68.50
70079;DHT22;57451;52.496;13.456;2023-02-28T04:24:03;0.30;68.70
70079;DHT22;57451;52.496;13.456;2023-02-28T04:26:31;0.20;68.90
70079;DHT22;57451;52.496;13.456;2023-02-28T04:28:59;0.20;69.10
70079;DHT22;57451;52.496;13.456;2023-02-28T04:31:26;0.10;68.90
70079;DHT22;57451;52.496;13.456;2023-02-28T04:33:55;0.10;69.10
70079;DHT22;57451;52.496;13.456;2023-02-28T04:36:22;0.10;69.30
70079;DHT22;57451;52.496;13.456;2023-02-28T04:38:51;0.10;69.10
70079;DHT22;57451;52.496;13.456;2023-02-28T04:41:19;0.10;69.00
70079;DHT22;57451;52.496;13.456;2023-02-28T04:43:47;0.10;69.10
70079;DHT22;57451;52.496;13.456;2023-02-28T04:46:14;0.00;69.20
70079;DHT22;57451;52.496;13.456;2023-02-28T04:48:42;0.00;69.40
70079;DHT22;57451;52.496;13.456;2023-02-28T04:51:12;0.00;69.70
70079;DHT22;57451;52.496;13.456;2023-02-28T04:53:41;-0.10;69.80
70079;DHT22;57451;52.496;13.456;2023-02-28T04:56:12;-0.10;70.00
70079;DHT22;57451;52.496;13.456;2023-02-28T04:58:40;-0.20;70.10
70079;DHT22;57451;52.496;13.456;2023-02-28T05:01:20;-0.20;70.30
70079;DHT22;57451;52.496;13.456;2023-02-28T05:03:48;-0.20;70.30
70079;DHT22;57451;52.496;13.456;2023-02-28T05:06:16;-0.30;70.30
70079;DHT22;57451;52.496;13.456;2023-02-28T05:08:44;-0.30;70.60
70079;DHT22;57451;52.496;13.456;2023-02-28T05:11:16;-0.30;70.50
70079;DHT22;57451;52.496;13.456;2023-02-28T05:13:45;-0.30;70.60
70079;DHT22;57451;52.496;13.456;2023-02-28T05:16:12;-0.40;70.60
70079;DHT22;57451;52.496;13.456;2023-02-28T05:18:40;-0.40;70.70
70079;DHT22;57451;52.496;13.456;2023-02-28T05:21:22;-0.40;70.70
70079;DHT22;57451;52.496;13.456;2023-02-28T05:23:51;-0.40;70.50
70079;DHT22;57451;52.496;13.456;2023-02-28T05:26:20;-0.40;70.60
70079;DHT22;57451;52.496;13.456;2023-02-28T05:28:47;-0.50;70.80
70079;DHT22;57451;52.496;13.456;2023-02-28T05:31:15;-0.50;70.90
70079;DHT22;57451;52.496;13.456;2023-02-28T05:33:42;-0.50;71.00
70079;DHT22;57451;52.496;13.456;2023-02-28T05:36:09;-0.60;71.20
70079;DHT22;57451;52.496;13.456;2023-02-28T05:38:37;-0.60;71.00
70079;DHT22;57451;52.496;13.456;2023-02-28T05:41:06;-0.60;70.90
70079;DHT22;57451;52.496;13.456;2023-02-28T05:43:35;-0.60;71.10
70079;DHT22;57451;52.496;13.456;2023-02-28T05:46:04;-0.70;70.90
70079;DHT22;57451;52.496;13.456;2023-02-28T05:48:34;-0.70;71.10
70079;DHT22;57451;52.496;13.456;2023-02-28T05:51:01;-0.70;70.90
70079;DHT22;57451;52.496;13.456;2023-02-28T05:53:30;-0.70;70.80
70079;DHT22;57451;52.496;13.456;2023-02-28T05:55:57;-0.80;70.90
70079;DHT22;57451;52.496;13.456;2023-02-28T05:58:24;-0.80;70.60
70079;DHT22;57451;52.496;13.456;2023-02-28T06:01:00;-0.80;70.60
70079;DHT22;57451;52.496;13.456;2023-02-28T06:03:28;-0.80;70.60
70079;DHT22;57451;52.496;13.456;2023-02-28T06:05:55;-0.80;71.00
70079;DHT22;57451;52.496;13.456;2023-02-28T06:08:22;-0.80;71.00
70079;DHT22;57451;52.496;13.456;2023-02-28T06:10:49;-0.80;71.30
70079;DHT22;57451;52.496;13.456;2023-02-28T06:13:17;-0.90;71.30
70079;DHT22;57451;52.496;13.456;2023-02-28T06:15:44;-0.90;71.40
70079;DHT22;57451;52.496;13.456;2023-02-28T06:18:13;-0.90;71.40
70079;DHT22;57451;52.496;13.456;2023-02-28T06:20:40;-0.90;71.20
70079;DHT22;57451;52.496;13.456;2023-02-28T06:23:07;-0.90;71.00
70079;DHT22;57451;52.496;13.456;2023-02-28T06:25:34;-0.90;70.90
70079;DHT22;57451;52.496;13.456;2023-02-28T06:28:02;-0.90;70.90
70079;DHT22;57451;52.496;13.456;2023-02-28T06:30:29;-0.90;70.70
70079;DHT22;57451;52.496;13.456;2023-02-28T06:33:00;-0.90;71.00
70079;DHT22;57451;52.496;13.456;2023-02-28T06:35:29;-0.90;70.60
70079;DHT22;57451;52.496;13.456;2023-02-28T06:37:56;-0.90;70.50
70079;DHT22;57451;52.496;13.456;2023-02-28T06:40:23;-0.80;70.40
70079;DHT22;57451;52.496;13.456;2023-02-28T06:42:51;-0.90;70.40
70079;DHT22;57451;52.496;13.456;2023-02-28T06:45:18;-0.90;70.30
70079;DHT22;57451;52.496;13.456;2023-02-28T06:47:45;-0.80;70.40
70079;DHT22;57451;52.496;13.456;2023-02-28T06:50:19;-0.80;70.50
70079;DHT22;57451;52.496;13.456;2023-02-28T06:52:48;-0.80;70.80
70079;DHT22;57451;52.496;13.456;2023-02-28T06:55:20;-0.80;71.10
70079;DHT22;57451;52.496;13.456;2023-02-28T06:57:48;-0.70;71.60
70079;DHT22;57451;52.496;13.456;2023-02-28T07:00:18;-0.70;71.60
70079;DHT22;57451;52.496;13.456;2023-02-28T07:02:45;-0.60;72.30
70079;DHT22;57451;52.496;13.456;2023-02-28T07:05:14;-0.50;72.40
70079;DHT22;57451;52.496;13.456;2023-02-28T07:07:41;-0.40;72.50
70079;DHT22;57451;52.496;13.456;2023-02-28T07:10:13;-0.30;72.80
70079;DHT22;57451;52.496;13.456;2023-02-28T07:13:24;-0.20;73.10
70079;DHT22;57451;52.496;13.456;2023-02-28T07:19:31;0.10;72.00
70079;DHT22;57451;52.496;13.456;2023-02-28T07:22:26;0.40;71.20
70079;DHT22;57451;52.496;13.456;2023-02-28T07:24:55;0.60;70.50
70079;DHT22;57451;52.496;13.456;2023-02-28T07:31:21;0.90;69.20
70079;DHT22;57451;52.496;13.456;2023-02-28T07:34:11;1.10;68.00
70079;DHT22;57451;52.496;13.456;2023-02-28T07:36:42;1.40;67.20
70079;DHT22;57451;52.496;13.456;2023-02-28T07:39:09;1.50;66.70
70079;DHT22;57451;52.496;13.456;2023-02-28T07:41:37;1.70;66.60
70079;DHT22;57451;52.496;13.456;2023-02-28T07:44:11;1.90;66.10
70079;DHT22;57451;52.496;13.456;2023-02-28T07:46:38;2.10;66.00
70079;DHT22;57451;52.496;13.456;2023-02-28T07:49:06;2.20;65.90
70079;DHT22;57451;52.496;13.456;2023-02-28T07:51:34;2.50;65.40
70079;DHT22;57451;52.496;13.456;2023-02-28T07:54:01;2.70;64.80
70079;DHT22;57451;52.496;13.456;2023-02-28T07:56:28;2.90;63.50
70079;DHT22;57451;52.496;13.456;2023-02-28T07:58:56;3.10;62.70
70079;DHT22;57451;52.496;13.456;2023-02-28T08:01:25;3.40;61.90
70079;DHT22;57451;52.496;13.456;2023-02-28T08:03:52;3.60;60.60
70079;DHT22;57451;52.496;13.456;2023-02-28T08:06:22;3.80;60.70
70079;DHT22;57451;52.496;13.456;2023-02-28T08:08:50;4.00;59.80
70079;DHT22;57451;52.496;13.456;2023-02-28T08:11:18;4.20;59.80
70079;DHT22;57451;52.496;13.456;2023-02-28T08:13:46;4.50;57.30
70079;DHT22;57451;52.496;13.456;2023-02-28T08:16:14;4.70;57.50
70079;DHT22;57451;52.496;13.456;2023-02-28T08:18:46;5.00;55.70
70079;DHT22;57451;52.496;13.456;2023-02-28T08:21:13;5.30;54.00
70079;DHT22;57451;52.496;13.456;2023-02-28T08:23:40;5.60;51.40
70079;DHT22;57451;52.496;13.456;2023-02-28T08:26:07;5.80;51.10
70079;DHT22;57451;52.496;13.456;2023-02-28T08:28:35;6.00;48.30
70079;DHT22;57451;52.496;13.456;2023-02-28T08:31:07;6.20;50.00
70079;DHT22;57451;52.496;13.456;2023-02-28T08:33:35;6.40;46.80
70079;DHT22;57451;52.496;13.456;2023-02-28T08:36:05;6.60;46.30
70079;DHT22;57451;52.496;13.456;2023-02-28T08:38:32;6.90;45.20
70079;DHT22;57451;52.496;13.456;2023-02-28T08:41:02;7.00;45.70
70079;DHT22;57451;52.496;13.456;2023-02-28T08:43:29;7.20;44.80
70079;DHT22;57451;52.496;13.456;2023-02-28T08:45:57;7.40;44.10
70079;DHT22;57451;52.496;13.456;2023-02-28T08:48:24;7.60;43.70
70079;DHT22;57451;52.496;13.456;2023-02-28T08:50:56;7.80;42.80
70079;DHT22;57451;52.496;13.456;2023-02-28T08:53:35;8.00;42.20
70079;DHT22;57451;52.496;13.456;2023-02-28T08:56:04;8.20;42.30
70079;DHT22;57451;52.496;13.456;2023-02-28T08:58:33;8.30;42.80
70079;DHT22;57451;52.496;13.456;2023-02-28T09:01:07;8.60;40.50
70079;DHT22;57451;52.496;13.456;2023-02-28T09:03:35;8.80;41.50
70079;DHT22;57451;52.496;13.456;2023-02-28T09:06:03;9.00;41.20
70079;DHT22;57451;52.496;13.456;2023-02-28T09:08:31;9.20;40.40
70079;DHT22;57451;52.496;13.456;2023-02-28T09:11:00;9.40;37.80
70079;DHT22;57451;52.496;13.456;2023-02-28T09:13:30;9.60;38.20
70079;DHT22;57451;52.496;13.456;2023-02-28T09:15:57;9.80;37.90
70079;DHT22;57451;52.496;13.456;2023-02-28T09:18:25;10.00;36.70
70079;DHT22;57451;52.496;13.456;2023-02-28T09:20:53;10.10;37.60
70079;DHT22;57451;52.496;13.456;2023-02-28T09:23:20;10.30;37.90
70079;DHT22;57451;52.496;13.456;2023-02-28T09:25:50;10.60;36.20
70079;DHT22;57451;52.496;13.456;2023-02-28T09:28:20;10.70;36.40
70079;DHT22;57451;52.496;13.456;2023-02-28T09:30:49;10.80;36.00
70079;DHT22;57451;52.496;13.456;2023-02-28T09:33:18;11.10;36.10
70079;DHT22;57451;52.496;13.456;2023-02-28T09:35:48;11.30;36.00
70079;DHT22;57451;52.496;13.456;2023-02-28T09:38:16;11.50;36.00
70079;DHT22;57451;52.496;13.456;2023-02-28T09:40:48;11.60;32.80
70079;DHT22;57451;52.496;13.456;2023-02-28T09:43:20;11.80;32.40
70079;DHT22;57451;52.496;13.456;2023-02-28T09:45:51;11.90;32.70
70079;DHT22;57451;52.496;13.456;2023-02-28T09:48:24;12.00;34.40
70079;DHT22;57451;52.496;13.456;2023-02-28T09:50:55;12.20;34.60
70079;DHT22;57451;52.496;13.456;2023-02-28T09:53:28;12.40;36.00
70079;DHT22;57451;52.496;13.456;2023-02-28T09:56:04;12.60;35.80
70079;DHT22;57451;52.496;13.456;2023-02-28T09:58:39;12.90;34.40
70079;DHT22;57451;52.496;13.456;2023-02-28T10:01:12;13.00;32.30
70079;DHT22;57451;52.496;13.456;2023-02-28T10:03:48;13.10;31.70
70079;DHT22;57451;52.496;13.456;2023-02-28T10:06:18;13.30;34.20
70079;DHT22;57451;52.496;13.456;2023-02-28T10:08:52;13.50;33.70
70079;DHT22;57451;52.496;13.456;2023-02-28T10:11:23;13.70;35.10
70079;DHT22;57451;52.496;13.456;2023-02-28T10:13:56;13.90;33.10
70079;DHT22;57451;52.496;13.456;2023-02-28T10:16:32;14.20;31.50
70079;DHT22;57451;52.496;13.456;2023-02-28T10:19:04;14.30;31.70
70079;DHT22;57451;52.496;13.456;2023-02-28T10:21:37;14.50;33.10
70079;DHT22;57451;52.496;13.456;2023-02-28T10:24:25;14.40;32.40
70079;DHT22;57451;52.496;13.456;2023-02-28T10:27:00;14.70;33.00
70079;DHT22;57451;52.496;13.456;2023-02-28T10:29:31;15.00;33.70
70079;DHT22;57451;52.496;13.456;2023-02-28T10:32:02;15.30;33.00
70079;DHT22;57451;52.496;13.456;2023-02-28T10:34:30;15.60;32.90
70079;DHT22;57451;52.496;13.456;2023-02-28T10:36:58;15.70;33.10
70079;DHT22;57451;52.496;13.456;2023-02-28T10:39:38;16.00;33.90
70079;DHT22;57451;52.496;13.456;2023-02-28T10:42:21;16.20;31.30
70079;DHT22;57451;52.496;13.456;2023-02-28T10:45:05;16.50;32.10
70079;DHT22;57451;52.496;13.456;2023-02-28T10:47:33;16.70;31.70
70079;DHT22;57451;52.496;13.456;2023-02-28T10:50:02;16.80;28.50
70079;DHT22;57451;52.496;13.456;2023-02-28T10:52:38;16.90;28.80
70079;DHT22;57451;52.496;13.456;2023-02-28T10:55:20;16.80;29.30
70079;DHT22;57451;52.496;13.456;2023-02-28T10:57:49;16.90;28.40
70079;DHT22;57451;52.496;13.456;2023-02-28T11:00:22;16.90;28.60
70079;DHT22;57451;52.496;13.456;2023-02-28T11:02:49;16.90;28.10
70079;DHT22;57451;52.496;13.456;2023-02-28T11:05:28;16.80;28.90
70079;DHT22;57451;52.496;13.456;2023-02-28T11:07:59;16.80;28.80
70079;DHT22;57451;52.496;13.456;2023-02-28T11:10:31;16.70;30.00
70079;DHT22;57451;52.496;13.456;2023-02-28T11:13:01;16.80;28.40
70079;DHT22;57451;52.496;13.456;2023-02-28T11:15:33;16.70;26.90
70079;DHT22;57451;52.496;13.456;2023-02-28T11:18:04;16.70;30.40
70079;DHT22;57451;52.496;13.456;2023-02-28T11:20:33;16.60;30.30
70079;DHT22;57451;52.496;13.456;2023-02-28T11:23:03;16.70;28.60
70079;DHT22;57451;52.496;13.456;2023-02-28T11:25:33;16.60;29.50
70079;DHT22;57451;52.496;13.456;2023-02-28T11:28:01;16.70;27.70
70079;DHT22;57451;52.496;13.456;2023-02-28T11:30:33;16.50;28.40
70079;DHT22;57451;52.496;13.456;2023-02-28T11:33:07;16.30;29.20
70079;DHT22;57451;52.496;13.456;2023-02-28T11:35:43;16.20;27.60
70079;DHT22;57451;52.496;13.456;2023-02-28T11:38:12;16.00;28.30
70079;DHT22;57451;52.496;13.456;2023-02-28T11:40:48;15.80;28.60
70079;DHT22;57451;52.496;13.456;2023-02-28T11:43:26;15.60;28.30
70079;DHT22;57451;52.496;13.456;2023-02-28T11:46:06;15.40;28.60
70079;DHT22;57451;52.496;13.456;2023-02-28T11:48:42;15.30;30.30
70079;DHT22;57451;52.496;13.456;2023-02-28T11:51:18;15.10;29.50
70079;DHT22;57451;52.496;13.456;2023-02-28T11:54:13;15.10;31.00
70079;DHT22;57451;52.496;13.456;2023-02-28T11:56:47;15.20;31.20
70079;DHT22;57451;52.496;13.456;2023-02-28T11:59:30;15.20;31.80
70079;DHT22;57451;52.496;13.456;2023-02-28T12:02:08;15.40;31.80
70079;DHT22;57451;52.496;13.456;2023-02-28T12:04:51;15.30;31.90
70079;DHT22;57451;52.496;13.456;2023-02-28T12:07:26;15.50;31.50
70079;DHT22;57451;52.496;13.456;2023-02-28T12:10:01;15.20;30.60
70079;DHT22;57451;52.496;13.456;2023-02-28T12:12:41;14.90;30.50
70079;DHT22;57451;52.496;13.456;2023-02-28T12:18:17;15.10;32.90
70079;DHT22;57451;52.496;13.456;2023-02-28T12:20:53;15.50;32.60
70079;DHT22;57451;52.496;13.456;2023-02-28T12:23:40;15.50;32.60
70079;DHT22;57451;52.496;13.456;2023-02-28T12:26:14;15.70;31.30
70079;DHT22;57451;52.496;13.456;2023-02-28T12:28:46;15.90;32.10
70079;DHT22;57451;52.496;13.456;2023-02-28T12:31:18;16.00;30.00
70079;DHT22;57451;52.496;13.456;2023-02-28T12:33:52;16.10;32.10
70079;DHT22;57451;52.496;13.456;2023-02-28T12:36:20;16.00;31.80
70079;DHT22;57451;52.496;13.456;2023-02-28T12:38:56;16.30;30.10
70079;DHT22;57451;52.496;13.456;2023-02-28T12:41:31;16.40;32.40
70079;DHT22;57451;52.496;13.456;2023-02-28T12:44:05;16.70;31.10
70079;DHT22;57451;52.496;13.456;2023-02-28T12:46:37;16.90;29.60
70079;DHT22;57451;52.496;13.456;2023-02-28T12:49:10;16.80;30.40
70079;DHT22;57451;52.496;13.456;2023-02-28T12:51:40;17.00;30.00
70079;DHT22;57451;52.496;13.456;2023-02-28T12:54:16;17.10;30.00
70079;DHT22;57451;52.496;13.456;2023-02-28T12:56:49;17.10;30.70
70079;DHT22;57451;52.496;13.456;2023-02-28T12:59:24;17.30;30.30
70079;DHT22;57451;52.496;13.456;2023-02-28T13:02:24;17.30;27.60
70079;DHT22;57451;52.496;13.456;2023-02-28T13:05:14;17.40;30.00
70079;DHT22;57451;52.496;13.456;2023-02-28T13:08:27;17.40;26.60
70079;DHT22;57451;52.496;13.456;2023-02-28T13:11:01;17.30;28.50
70079;DHT22;57451;52.496;13.456;2023-02-28T13:13:33;17.20;28.70
70079;DHT22;57451;52.496;13.456;2023-02-28T13:16:04;17.10;29.00
70079;DHT22;57451;52.496;13.456;2023-02-28T13:18:34;17.20;27.80
70079;DHT22;57451;52.496;13.456;2023-02-28T13:21:06;17.20;27.80
70079;DHT22;57451;52.496;13.456;2023-02-28T13:23:57;17.10;27.90
70079;DHT22;57451;52.496;13.456;2023-02-28T13:29:42;16.90;28.90
70079;DHT22;57451;52.496;13.456;2023-02-28T13:32:33;17.00;29.30
70079;DHT22;57451;52.496;13.456;2023-02-28T13:35:34;16.90;28.10
70079;DHT22;57451;52.496;13.456;2023-02-28T13:38:22;16.70;26.50
70079;DHT22;57451;52.496;13.456;2023-02-28T13:40:49;16.50;29.10
70079;DHT22;57451;52.496;13.456;2023-02-28T13:43:18;16.50;29.40
70079;DHT22;57451;52.496;13.456;2023-02-28T13:46:10;16.50;29.20
70079;DHT22;57451;52.496;13.456;2023-02-28T13:48:38;16.70;28.40
70079;DHT22;57451;52.496;13.456;2023-02-28T13:51:28;16.90;30.00
70079;DHT22;57451;52.496;13.456;2023-02-28T13:54:17;17.10;29.50
70079;DHT22;57451;52.496;13.456;2023-02-28T13:56:51;17.30;28.80
70079;DHT22;57451;52.496;13.456;2023-02-28T13:59:26;17.70;29.00
70079;DHT22;57451;52.496;13.456;2023-02-28T14:02:22;18.00;28.90
70079;DHT22;57451;52.496;13.456;2023-02-28T14:05:00;18.20;28.20
70079;DHT22;57451;52.496;13.456;2023-02-28T14:07:30;18.50;28.50
70079;DHT22;57451;52.496;13.456;2023-02-28T14:10:06;18.70;29.20
70079;DHT22;57451;52.496;13.456;2023-02-28T14:12:59;19.00;28.90
70079;DHT22;57451;52.496;13.456;2023-02-28T14:15:39;19.30;28.90
70079;DHT22;57451;52.496;13.456;2023-02-28T14:18:20;19.50;27.30
70079;DHT22;57451;52.496;13.456;2023-02-28T14:20:56;19.70;27.90
70079;DHT22;57451;52.496;13.456;2023-02-28T14:23:38;19.90;27.80
70079;DHT22;57451;52.496;13.456;2023-02-28T14:26:18;20.00;28.10
70079;DHT22;57451;52.496;13.456;2023-02-28T14:29:00;20.20;29.40
70079;DHT22;57451;52.496;13.456;2023-02-28T14:31:34;20.40;27.80
70079;DHT22;57451;52.496;13.456;2023-02-28T14:34:28;20.50;27.80
70079;DHT22;57451;52.496;13.456;2023-02-28T14:37:00;20.50;27.00
70079;DHT22;57451;52.496;13.456;2023-02-28T14:39:30;20.40;26.80
70079;DHT22;57451;52.496;13.456;2023-02-28T14:41:59;20.40;27.70
70079;DHT22;57451;52.496;13.456;2023-02-28T14:44:31;20.50;27.60
70079;DHT22;57451;52.496;13.456;2023-02-28T14:47:00;20.40;26.90
70079;DHT22;57451;52.496;13.456;2023-02-28T14:49:36;20.10;28.30
70079;DHT22;57451;52.496;13.456;2023-02-28T14:52:14;20.10;26.00
70079;DHT22;57451;52.496;13.456;2023-02-28T14:54:43;19.90;27.40
70079;DHT22;57451;52.496;13.456;2023-02-28T14:57:23;19.70;27.00
70079;DHT22;57451;52.496;13.456;2023-02-28T14:59:58;19.60;28.00
70079;DHT22;57451;52.496;13.456;2023-02-28T15:02:26;19.30;26.90
70079;DHT22;57451;52.496;13.456;2023-02-28T15:04:57;19.20;26.80
70079;DHT22;57451;52.496;13.456;2023-02-28T15:07:26;18.90;26.80
70079;DHT22;57451;52.496;13.456;2023-02-28T15:10:11;18.70;26.10
70079;DHT22;57451;52.496;13.456;2023-02-28T15:12:40;18.30;28.50
70079;DHT22;57451;52.496;13.456;2023-02-28T15:15:15;18.00;26.80
70079;DHT22;57451;52.496;13.456;2023-02-28T15:17:45;17.70;29.40
70079;DHT22;57451;52.496;13.456;2023-02-28T15:20:14;17.60;28.10
70079;DHT22;57451;52.496;13.456;2023-02-28T15:22:42;17.40;28.20
70079;DHT22;57451;52.496;13.456;2023-02-28T15:25:14;17.20;29.30
70079;DHT22;57451;52.496;13.456;2023-02-28T15:27:45;17.00;27.80
70079;DHT22;57451;52.496;13.456;2023-02-28T15:30:17;16.70;27.30
70079;DHT22;57451;52.496;13.456;2023-02-28T15:33:02;16.30;29.90
70079;DHT22;57451;52.496;13.456;2023-02-28T15:35:32;16.10;29.00
70079;DHT22;57451;52.496;13.456;2023-02-28T15:38:01;16.00;30.10
70079;DHT22;57451;52.496;13.456;2023-02-28T15:40:30;15.80;29.40
70079;DHT22;57451;52.496;13.456;2023-02-28T15:43:03;15.60;29.30
70079;DHT22;57451;52.496;13.456;2023-02-28T15:45:34;15.30;30.70
70079;DHT22;57451;52.496;13.456;2023-02-28T15:48:05;15.10;30.50
70079;DHT22;57451;52.496;13.456;2023-02-28T15:50:40;15.00;30.80
70079;DHT22;57451;52.496;13.456;2023-02-28T15:53:14;14.70;30.90
70079;DHT22;57451;52.496;13.456;2023-02-28T15:55:42;14.50;31.70
70079;DHT22;57451;52.496;13.456;2023-02-28T15:58:12;14.20;29.90
70079;DHT22;57451;52.496;13.456;2023-02-28T16:00:43;13.70;32.40
70079;DHT22;57451;52.496;13.456;2023-02-28T16:03:23;13.50;32.90
70079;DHT22;57451;52.496;13.456;2023-02-28T16:08:51;13.00;33.20
70079;DHT22;57451;52.496;13.456;2023-02-28T16:11:20;12.80;33.60
70079;DHT22;57451;52.496;13.456;2023-02-28T16:13:50;12.60;33.80